Terminal Aerodrome Forecast
Issued by NWS Albany, NY

Home | Current Version | Previous Version | Text Only | Print | Product List | Glossary On
Versions: 1 2 3 4 5 6 7 8 9 10 11 12 13 14 15 16 17 18 19 20 21
000
FTUS41 KALY 070557 CCA
TAFALB
TAF COR
KALB 070557Z 0706/0806 18007KT P6SM SCT020 SCT080 SCT200
      TEMPO 0706/0710 BKN015
     FM071000 18009KT 6SM BR VCSH BKN020
     FM071800 19008KT 6SM -SHRA HZ BKN030
     FM080000 20005KT 5SM -SHRA BR BKN030=

USA.gov is the U.S. government's official web portal to all federal, state and local government web resources and services.